createdAt,value
2018-11-03T00:00:59.260Z,11.70
2018-11-03T00:03:28.280Z,14.00
2018-11-03T00:05:57.198Z,12.70
2018-11-03T00:08:25.964Z,13.07
2018-11-03T00:10:54.623Z,11.60
2018-11-03T00:13:23.492Z,11.27
2018-11-03T00:15:52.100Z,11.87
2018-11-03T00:18:20.705Z,11.30
2018-11-03T00:20:49.311Z,10.50
2018-11-03T00:23:24.496Z,12.60
2018-11-03T00:25:53.107Z,12.47
2018-11-03T00:28:21.720Z,12.47
2018-11-03T00:30:50.348Z,11.33
2018-11-03T00:33:18.945Z,13.70
2018-11-03T00:35:48.126Z,11.23
2018-11-03T00:38:23.821Z,11.67
2018-11-03T00:40:55.086Z,11.13
2018-11-03T00:43:29.088Z,10.33
2018-11-03T00:46:02.365Z,9.87
2018-11-03T00:48:33.471Z,13.27
2018-11-03T00:51:04.778Z,12.10
2018-11-03T00:53:36.461Z,12.90
2018-11-03T00:56:06.562Z,12.03
2018-11-03T00:58:35.889Z,14.17
2018-11-03T01:01:04.728Z,11.97
2018-11-03T01:03:35.058Z,10.80
2018-11-03T01:06:10.001Z,11.37
2018-11-03T01:08:41.026Z,11.60
2018-11-03T01:11:10.877Z,12.13
2018-11-03T01:13:44.934Z,11.13
2018-11-03T01:16:19.662Z,12.10
2018-11-03T01:18:54.665Z,12.17
2018-11-03T01:21:25.792Z,13.67
2018-11-03T01:23:57.167Z,12.10
2018-11-03T01:26:29.115Z,12.40
2018-11-03T01:29:00.063Z,12.13
2018-11-03T01:31:31.293Z,12.97
2018-11-03T01:34:02.393Z,11.67
2018-11-03T01:36:32.344Z,12.77
2018-11-03T01:39:01.656Z,11.93
2018-11-03T01:41:30.869Z,11.77
2018-11-03T01:43:59.488Z,12.30
2018-11-03T01:46:28.082Z,12.07
2018-11-03T01:48:56.751Z,13.47
2018-11-03T01:51:25.324Z,11.17
2018-11-03T01:53:54.475Z,11.23
2018-11-03T01:56:23.151Z,11.43
2018-11-03T01:58:51.748Z,12.27
2018-11-03T02:01:20.824Z,11.73
2018-11-03T02:03:53.943Z,11.70
2018-11-03T02:06:22.945Z,12.03
2018-11-03T02:08:56.323Z,12.57
2018-11-03T02:11:27.117Z,12.73
2018-11-03T02:13:56.700Z,11.80
2018-11-03T02:16:25.304Z,12.10
2018-11-03T02:18:54.289Z,12.17
2018-11-03T02:21:23.265Z,12.07
2018-11-03T02:23:54.466Z,12.67
2018-11-03T02:26:28.444Z,11.83
2018-11-03T02:29:05.069Z,12.07
2018-11-03T02:31:40.010Z,12.90
2018-11-03T02:34:14.608Z,12.50
2018-11-03T02:36:48.220Z,11.53
2018-11-03T02:39:21.367Z,11.23
2018-11-03T02:41:56.268Z,12.57
2018-11-03T02:44:25.157Z,12.37
2018-11-03T02:46:53.857Z,11.47
2018-11-03T02:49:22.487Z,12.77
2018-11-03T02:51:51.377Z,11.60
2018-11-03T02:54:24.486Z,13.30
2018-11-03T02:56:56.107Z,15.70
2018-11-03T02:59:27.318Z,13.03
2018-11-03T03:01:59.375Z,12.93
2018-11-03T03:04:31.492Z,14.73
2018-11-03T03:07:04.418Z,14.53
2018-11-03T03:09:37.622Z,13.27
2018-11-03T03:12:11.838Z,14.40
2018-11-03T03:14:44.787Z,12.67
2018-11-03T03:17:16.462Z,13.60
2018-11-03T03:19:50.516Z,11.13
2018-11-03T03:22:20.899Z,13.10
2018-11-03T03:24:52.624Z,13.33
2018-11-03T03:27:22.520Z,14.13
2018-11-03T03:29:51.475Z,13.03
2018-11-03T03:32:20.069Z,12.60
2018-11-03T03:34:49.236Z,12.93
2018-11-03T03:37:21.361Z,12.50
2018-11-03T03:39:53.166Z,12.73
2018-11-03T03:42:24.259Z,12.80
2018-11-03T03:44:56.578Z,13.17
2018-11-03T03:47:28.167Z,12.60
2018-11-03T03:49:56.930Z,11.73
2018-11-03T03:52:25.760Z,14.83
2018-11-03T03:54:54.392Z,13.27
2018-11-03T03:57:23.335Z,11.87
2018-11-03T03:59:52.011Z,12.03
2018-11-03T04:02:20.751Z,12.23
2018-11-03T04:04:49.333Z,12.43
2018-11-03T04:07:17.960Z,12.53
2018-11-03T04:09:46.645Z,12.37
2018-11-03T04:12:15.401Z,12.30
2018-11-03T04:14:44.247Z,12.23
2018-11-03T04:17:12.908Z,12.13
2018-11-03T04:19:41.615Z,12.90
2018-11-03T04:22:10.414Z,12.97
2018-11-03T04:24:39.032Z,12.70
2018-11-03T04:27:07.746Z,12.07
2018-11-03T04:29:36.485Z,12.67
2018-11-03T04:32:05.103Z,12.23
2018-11-03T04:34:34.123Z,14.13
2018-11-03T04:37:02.687Z,11.53
2018-11-03T04:39:31.837Z,11.40
2018-11-03T04:42:00.416Z,14.03
2018-11-03T04:44:29.086Z,12.07
2018-11-03T04:46:58.224Z,12.33
2018-11-03T04:49:26.796Z,11.83
2018-11-03T04:51:57.177Z,12.83
2018-11-03T04:54:25.785Z,11.30
2018-11-03T04:56:54.368Z,10.97
2018-11-03T04:59:22.956Z,11.70
2018-11-03T05:01:51.548Z,13.63
2018-11-03T05:04:20.160Z,11.60
2018-11-03T05:06:51.816Z,12.03
2018-11-03T05:09:20.391Z,12.57
2018-11-03T05:11:48.964Z,11.33
2018-11-03T05:14:17.544Z,11.80
2018-11-03T05:16:46.152Z,12.10
2018-11-03T05:19:14.723Z,11.93
2018-11-03T05:21:43.318Z,12.93
2018-11-03T05:24:11.934Z,12.07
2018-11-03T05:26:40.529Z,14.90
2018-11-03T05:29:09.556Z,13.50
2018-11-03T05:31:38.136Z,14.30
2018-11-03T05:34:06.738Z,12.20
2018-11-03T05:36:35.361Z,12.57
2018-11-03T05:39:05.010Z,14.10
2018-11-03T05:41:33.579Z,12.17
2018-11-03T05:44:02.183Z,13.63
2018-11-03T05:46:30.829Z,12.90
2018-11-03T05:48:59.428Z,12.27
2018-11-03T05:51:28.009Z,13.10
2018-11-03T05:53:56.600Z,11.33
2018-11-03T05:56:25.195Z,12.23
2018-11-03T05:58:53.857Z,12.40
2018-11-03T06:01:22.437Z,12.37
2018-11-03T06:03:51.035Z,12.93
2018-11-03T06:06:19.652Z,13.20
2018-11-03T06:08:48.372Z,12.67
2018-11-03T06:11:16.913Z,12.47
2018-11-03T06:13:45.504Z,14.33
2018-11-03T06:16:14.097Z,12.20
2018-11-03T06:18:42.703Z,12.30
2018-11-03T06:21:11.296Z,12.70
2018-11-03T06:23:40.012Z,14.07
2018-11-03T06:26:08.736Z,15.53
2018-11-03T06:28:37.325Z,13.30
2018-11-03T06:31:06.944Z,13.67
2018-11-03T06:33:35.545Z,13.43
2018-11-03T06:36:04.144Z,13.27
2018-11-03T06:38:32.767Z,13.00
2018-11-03T06:41:01.364Z,13.40
2018-11-03T06:43:29.972Z,12.87
2018-11-03T06:45:58.555Z,12.30
2018-11-03T06:48:27.156Z,13.67
2018-11-03T06:50:55.797Z,13.73
2018-11-03T06:53:24.376Z,12.53
2018-11-03T06:55:52.986Z,15.87
2018-11-03T06:58:21.548Z,13.90
2018-11-03T07:00:50.143Z,12.67
2018-11-03T07:03:18.748Z,13.50
2018-11-03T07:05:47.360Z,13.20
2018-11-03T07:08:15.947Z,15.37
2018-11-03T07:10:44.550Z,12.90
2018-11-03T07:13:13.181Z,12.80
2018-11-03T07:15:41.782Z,12.13
2018-11-03T07:18:10.379Z,13.53
2018-11-03T07:20:38.998Z,12.00
2018-11-03T07:23:07.613Z,12.47
2018-11-03T07:25:36.247Z,12.47
2018-11-03T07:28:05.200Z,13.30
2018-11-03T07:30:33.784Z,15.80
2018-11-03T07:33:02.365Z,12.57
2018-11-03T07:35:30.962Z,17.73
2018-11-03T07:37:59.541Z,13.30
2018-11-03T07:40:28.128Z,12.17
2018-11-03T07:42:56.717Z,14.10
2018-11-03T07:45:25.309Z,13.40
2018-11-03T07:47:53.965Z,13.87
2018-11-03T07:50:22.496Z,13.77
2018-11-03T07:52:51.079Z,15.33
2018-11-03T07:55:19.695Z,13.23
2018-11-03T07:57:48.275Z,15.50
2018-11-03T08:00:16.912Z,13.03
2018-11-03T08:02:45.487Z,13.10
2018-11-03T08:05:14.104Z,13.30
2018-11-03T08:07:42.715Z,14.60
2018-11-03T08:10:11.936Z,16.87
2018-11-03T08:12:40.569Z,25.77
2018-11-03T08:15:10.299Z,15.83
2018-11-03T08:17:39.190Z,14.60
2018-11-03T08:20:08.986Z,14.57
2018-11-03T08:22:37.584Z,14.13
2018-11-03T08:25:06.738Z,14.27
2018-11-03T08:27:35.341Z,14.33
2018-11-03T08:30:04.210Z,17.27
2018-11-03T08:32:32.812Z,16.20
2018-11-03T08:35:01.408Z,15.90
2018-11-03T08:37:30.020Z,17.47
2018-11-03T08:39:58.655Z,16.23
2018-11-03T08:42:27.248Z,15.47
2018-11-03T08:44:55.874Z,17.07
2018-11-03T08:47:24.495Z,16.00
2018-11-03T08:49:53.114Z,17.17
2018-11-03T08:52:21.707Z,16.27
2018-11-03T08:54:50.308Z,18.70
2018-11-03T08:57:18.948Z,17.57
2018-11-03T08:59:47.617Z,16.03
2018-11-03T09:02:16.204Z,20.73
2018-11-03T09:04:44.836Z,17.03
2018-11-03T09:07:13.611Z,17.03
2018-11-03T09:09:42.089Z,15.60
2018-11-03T09:12:10.668Z,18.73
2018-11-03T09:14:39.297Z,17.37
2018-11-03T09:17:07.972Z,17.43
2018-11-03T09:19:36.580Z,15.47
2018-11-03T09:22:05.220Z,17.13
2018-11-03T09:24:33.832Z,15.00
2018-11-03T09:27:02.470Z,20.07
2018-11-03T09:29:31.067Z,18.93
2018-11-03T09:31:59.694Z,16.57
2018-11-03T09:34:28.275Z,18.17
2018-11-03T09:36:56.913Z,21.00
2018-11-03T09:39:25.487Z,18.83
2018-11-03T09:41:54.107Z,19.83
2018-11-03T09:44:22.741Z,16.37
2018-11-03T09:46:51.341Z,17.67
2018-11-03T09:49:19.936Z,17.43
2018-11-03T09:51:48.512Z,17.53
2018-11-03T09:54:17.125Z,17.07
2018-11-03T09:56:45.810Z,18.63
2018-11-03T09:59:14.331Z,18.23
2018-11-03T10:01:42.937Z,16.60
2018-11-03T10:04:11.509Z,18.23
2018-11-03T10:06:40.193Z,17.90
2018-11-03T10:09:08.885Z,16.90
2018-11-03T10:11:37.485Z,18.77
2018-11-03T10:14:06.197Z,16.27
2018-11-03T10:16:34.779Z,18.17
2018-11-03T10:19:03.379Z,19.23
2018-11-03T10:21:31.933Z,17.63
2018-11-03T10:24:00.515Z,19.47
2018-11-03T10:26:29.136Z,19.30
2018-11-03T10:28:57.708Z,18.93
2018-11-03T10:31:26.300Z,22.83
2018-11-03T10:33:54.915Z,19.87
2018-11-03T10:36:23.592Z,21.37
2018-11-03T10:38:52.208Z,21.97
2018-11-03T10:41:20.786Z,21.20
2018-11-03T10:43:49.339Z,20.30
2018-11-03T10:46:18.028Z,25.97
2018-11-03T10:48:46.567Z,20.43
2018-11-03T10:51:15.192Z,20.77
2018-11-03T10:53:43.831Z,21.53
2018-11-03T10:56:12.416Z,19.53
2018-11-03T10:58:40.978Z,18.97
2018-11-03T11:01:14.858Z,21.10
2018-11-03T11:03:48.629Z,19.00
2018-11-03T11:06:22.567Z,20.83
2018-11-03T11:08:56.531Z,20.00
2018-11-03T11:11:30.324Z,24.10
2018-11-03T11:13:58.927Z,20.53
2018-11-03T11:16:27.594Z,17.83
2018-11-03T11:18:56.136Z,24.07
2018-11-03T11:21:24.715Z,18.73
2018-11-03T11:23:53.443Z,17.87
2018-11-03T11:26:21.901Z,18.23
2018-11-03T11:28:50.504Z,19.53
2018-11-03T11:31:19.185Z,17.90
2018-11-03T11:33:47.752Z,18.93
2018-11-03T11:36:16.328Z,16.87
2018-11-03T11:38:44.912Z,18.00
2018-11-03T11:41:13.492Z,18.83
2018-11-03T11:43:42.100Z,18.43
2018-11-03T11:46:10.717Z,17.67
2018-11-03T11:48:39.312Z,18.80
2018-11-03T11:51:07.907Z,19.07
2018-11-03T11:53:36.485Z,17.40
2018-11-03T11:56:05.153Z,16.70
2018-11-03T11:58:33.776Z,16.87
2018-11-03T12:01:02.368Z,16.13
2018-11-03T12:03:30.959Z,16.97
2018-11-03T12:05:59.563Z,20.50
2018-11-03T12:08:28.188Z,19.50
2018-11-03T12:10:56.749Z,17.53
2018-11-03T12:13:25.373Z,17.43
2018-11-03T12:15:53.996Z,18.07
2018-11-03T12:18:22.560Z,18.30
2018-11-03T12:20:51.180Z,17.97
2018-11-03T12:23:19.761Z,18.10
2018-11-03T12:25:48.371Z,19.53
2018-11-03T12:28:16.913Z,17.77
2018-11-03T12:30:45.578Z,16.73
2018-11-03T12:33:14.197Z,16.63
2018-11-03T12:35:42.788Z,16.57
2018-11-03T12:38:11.391Z,14.90
2018-11-03T12:40:40.030Z,16.60
2018-11-03T12:43:08.613Z,18.07
2018-11-03T12:45:37.203Z,18.77
2018-11-03T12:48:06.073Z,17.80
2018-11-03T12:50:34.656Z,16.23
2018-11-03T12:53:03.228Z,17.67
2018-11-03T12:55:31.801Z,17.50
2018-11-03T12:58:00.373Z,17.63
2018-11-03T13:00:28.963Z,21.47
2018-11-03T13:02:57.557Z,17.93
2018-11-03T13:05:26.180Z,20.00
2018-11-03T13:07:54.780Z,16.80
2018-11-03T13:10:23.381Z,16.53
2018-11-03T13:12:51.965Z,17.80
2018-11-03T13:15:20.578Z,18.27
2018-11-03T13:17:49.164Z,18.63
2018-11-03T13:20:17.756Z,16.33
2018-11-03T13:22:46.415Z,18.53
2018-11-03T13:25:15.000Z,18.53
2018-11-03T13:27:46.531Z,18.13
2018-11-03T13:30:15.532Z,17.67
2018-11-03T13:32:44.126Z,18.80
2018-11-03T13:35:13.586Z,18.97
2018-11-03T13:37:42.229Z,18.90
2018-11-03T13:40:12.247Z,16.63
2018-11-03T13:42:41.060Z,17.33
2018-11-03T13:45:10.172Z,15.87
2018-11-03T13:47:39.300Z,17.97
2018-11-03T13:50:11.289Z,17.50
2018-11-03T13:52:40.528Z,16.27
2018-11-03T13:55:09.753Z,17.37
2018-11-03T13:57:38.526Z,21.33
2018-11-03T14:00:08.044Z,18.43
2018-11-03T14:02:36.660Z,18.20
2018-11-03T14:05:05.740Z,19.00
2018-11-03T14:07:34.397Z,20.17
2018-11-03T14:10:03.944Z,20.17
2018-11-03T14:12:32.639Z,20.67
2018-11-03T14:15:01.221Z,18.77
2018-11-03T14:17:29.815Z,20.43
2018-11-03T14:19:58.404Z,19.13
2018-11-03T14:22:26.980Z,17.70
2018-11-03T14:24:55.558Z,23.47
2018-11-03T14:27:24.149Z,20.03
2018-11-03T14:29:52.772Z,21.23
2018-11-03T14:32:21.352Z,19.27
2018-11-03T14:34:49.947Z,22.00
2018-11-03T14:37:18.524Z,21.03
2018-11-03T14:39:47.108Z,19.23
2018-11-03T14:42:15.688Z,21.07
2018-11-03T14:44:44.360Z,20.37
2018-11-03T14:47:12.893Z,20.33
2018-11-03T14:49:41.481Z,23.43
2018-11-03T14:52:10.085Z,20.17
2018-11-03T14:54:38.685Z,19.47
2018-11-03T14:57:07.392Z,16.57
2018-11-03T14:59:35.988Z,15.93
2018-11-03T15:02:04.621Z,15.90
2018-11-03T15:04:33.227Z,15.27
2018-11-03T15:07:01.829Z,17.60
2018-11-03T15:09:30.437Z,16.30
2018-11-03T15:11:59.010Z,17.40
2018-11-03T15:14:27.666Z,15.87
2018-11-03T15:16:56.201Z,16.93
2018-11-03T15:19:24.773Z,15.07
2018-11-03T15:21:53.360Z,16.50
2018-11-03T15:24:21.956Z,16.10
2018-11-03T15:26:50.513Z,15.87
2018-11-03T15:29:19.112Z,16.27
2018-11-03T15:31:47.767Z,15.40
2018-11-03T15:34:16.379Z,15.63
2018-11-03T15:36:44.963Z,15.93
2018-11-03T15:39:13.588Z,15.30
2018-11-03T15:41:42.180Z,16.73
2018-11-03T15:44:10.771Z,18.07
2018-11-03T15:46:39.360Z,16.47
2018-11-03T15:49:07.973Z,18.27
2018-11-03T15:51:36.583Z,18.97
2018-11-03T15:54:05.344Z,20.23
2018-11-03T15:56:33.965Z,17.13
2018-11-03T15:59:02.553Z,17.47
2018-11-03T16:01:31.136Z,18.20
2018-11-03T16:03:59.771Z,18.07
2018-11-03T16:06:28.784Z,17.63
2018-11-03T16:08:57.485Z,19.73
2018-11-03T16:11:26.068Z,21.73
2018-11-03T16:13:54.685Z,23.30
2018-11-03T16:16:23.263Z,20.57
2018-11-03T16:18:51.916Z,19.57
2018-11-03T16:21:20.493Z,20.97
2018-11-03T16:23:49.065Z,20.80
2018-11-03T16:26:17.649Z,22.73
2018-11-03T16:28:46.250Z,22.23
2018-11-03T16:31:14.821Z,23.00
2018-11-03T16:33:43.419Z,22.90
2018-11-03T16:36:12.038Z,23.67
2018-11-03T16:38:40.635Z,22.03
2018-11-03T16:41:09.265Z,24.23
2018-11-03T16:43:37.877Z,22.00
2018-11-03T16:46:06.472Z,23.47
2018-11-03T16:48:35.053Z,23.00
2018-11-03T16:51:03.681Z,19.30
2018-11-03T16:53:32.264Z,21.63
2018-11-03T16:56:00.849Z,20.53
2018-11-03T16:58:29.512Z,20.43
2018-11-03T17:00:58.048Z,21.07
2018-11-03T17:03:26.649Z,24.70
2018-11-03T17:05:55.256Z,21.20
2018-11-03T17:08:23.867Z,24.23
2018-11-03T17:10:52.466Z,24.63
2018-11-03T17:13:21.076Z,22.60
2018-11-03T17:15:49.677Z,22.33
2018-11-03T17:18:18.263Z,27.20
2018-11-03T17:20:46.881Z,21.83
2018-11-03T17:23:15.516Z,23.07
2018-11-03T17:25:44.079Z,21.67
2018-11-03T17:28:12.676Z,21.17
2018-11-03T17:30:41.299Z,24.27
2018-11-03T17:33:09.915Z,22.13
2018-11-03T17:35:38.512Z,23.00
2018-11-03T17:38:07.164Z,25.23
2018-11-03T17:40:35.753Z,26.83
2018-11-03T17:43:04.385Z,31.07
2018-11-03T17:45:32.949Z,25.80
2018-11-03T17:48:01.510Z,28.80
2018-11-03T17:50:30.108Z,39.30
2018-11-03T17:52:58.679Z,36.50
2018-11-03T17:55:27.242Z,29.30
2018-11-03T17:57:55.840Z,28.50
2018-11-03T18:00:25.631Z,27.67
2018-11-03T18:02:54.020Z,27.43
2018-11-03T18:05:22.617Z,24.90
2018-11-03T18:07:51.194Z,20.87
2018-11-03T18:10:19.852Z,22.73
2018-11-03T18:12:48.432Z,20.10
2018-11-03T18:15:17.081Z,21.73
2018-11-03T18:17:45.692Z,21.10
2018-11-03T18:20:14.330Z,21.93
2018-11-03T18:22:42.910Z,24.27
2018-11-03T18:25:11.493Z,23.77
2018-11-03T18:27:40.147Z,23.10
2018-11-03T18:30:09.965Z,24.80
2018-11-03T18:32:38.925Z,24.00
2018-11-03T18:35:07.580Z,28.77
2018-11-03T18:37:36.257Z,29.87
2018-11-03T18:40:05.257Z,25.97
2018-11-03T18:42:33.838Z,30.97
2018-11-03T18:45:02.425Z,28.80
2018-11-03T18:47:30.997Z,28.90
2018-11-03T18:49:59.569Z,31.00
2018-11-03T18:52:28.148Z,30.57
2018-11-03T18:54:56.700Z,28.23
2018-11-03T18:57:25.277Z,29.47
2018-11-03T18:59:53.864Z,30.57
2018-11-03T19:02:22.544Z,32.20
2018-11-03T19:04:51.056Z,32.43
2018-11-03T19:07:19.699Z,36.83
2018-11-03T19:09:48.342Z,31.73
2018-11-03T19:12:16.965Z,32.40
2018-11-03T19:14:45.579Z,34.63
2018-11-03T19:17:14.232Z,32.37
2018-11-03T19:19:42.813Z,31.83
2018-11-03T19:22:11.483Z,34.00
2018-11-03T19:24:40.061Z,33.03
2018-11-03T19:27:08.662Z,35.30
2018-11-03T19:29:37.254Z,33.53
2018-11-03T19:32:06.407Z,32.83
2018-11-03T19:34:35.016Z,32.20
2018-11-03T19:37:03.605Z,33.23
2018-11-03T19:39:32.196Z,32.20
2018-11-03T19:42:00.813Z,34.30
2018-11-03T19:44:29.433Z,34.03
2018-11-03T19:46:58.072Z,32.03
2018-11-03T19:49:26.675Z,32.47
2018-11-03T19:51:55.322Z,33.37
2018-11-03T19:54:23.952Z,30.43
2018-11-03T19:56:52.590Z,32.77
2018-11-03T19:59:21.241Z,36.67
2018-11-03T20:01:50.009Z,32.73
2018-11-03T20:04:18.656Z,35.53
2018-11-03T20:06:47.261Z,34.57
2018-11-03T20:09:15.896Z,33.33
2018-11-03T20:11:44.496Z,33.97
2018-11-03T20:14:13.154Z,33.97
2018-11-03T20:16:41.811Z,35.83
2018-11-03T20:19:10.405Z,32.67
2018-11-03T20:21:39.082Z,31.77
2018-11-03T20:24:07.834Z,33.43
2018-11-03T20:26:36.532Z,28.13
2018-11-03T20:29:05.144Z,30.50
2018-11-03T20:31:33.769Z,30.70
2018-11-03T20:34:02.467Z,31.07
2018-11-03T20:36:31.091Z,32.90
2018-11-03T20:38:59.681Z,32.73
2018-11-03T20:41:28.288Z,31.47
2018-11-03T20:43:56.939Z,37.33
2018-11-03T20:46:25.544Z,31.57
2018-11-03T20:48:54.192Z,32.47
2018-11-03T20:51:22.821Z,30.03
2018-11-03T20:53:51.496Z,33.80
2018-11-03T20:56:20.040Z,28.17
2018-11-03T20:58:48.640Z,33.20
2018-11-03T21:01:17.252Z,32.73
2018-11-03T21:03:45.853Z,31.10
2018-11-03T21:06:14.436Z,31.00
2018-11-03T21:08:43.095Z,28.17
2018-11-03T21:11:11.697Z,28.47
2018-11-03T21:13:40.369Z,29.97
2018-11-03T21:16:08.960Z,30.40
2018-11-03T21:18:37.558Z,30.50
2018-11-03T21:21:06.217Z,30.03
2018-11-03T21:23:34.861Z,32.00
2018-11-03T21:26:03.469Z,29.90
2018-11-03T21:28:32.100Z,28.83
2018-11-03T21:31:00.712Z,28.03
2018-11-03T21:33:29.323Z,29.60
2018-11-03T21:35:57.936Z,27.50
2018-11-03T21:38:26.563Z,56.10
2018-11-03T21:40:55.138Z,40.30
2018-11-03T21:43:23.760Z,32.00
2018-11-03T21:45:52.347Z,28.67
2018-11-03T21:48:20.933Z,30.90
2018-11-03T21:50:49.604Z,33.20
2018-11-03T21:53:18.186Z,30.17
2018-11-03T21:55:46.838Z,29.63
2018-11-03T21:58:15.458Z,29.33
2018-11-03T22:00:44.120Z,28.13
2018-11-03T22:03:12.721Z,28.03
2018-11-03T22:05:41.353Z,30.20
2018-11-03T22:08:09.933Z,35.00
2018-11-03T22:10:38.547Z,31.30
2018-11-03T22:13:07.998Z,31.57
2018-11-03T22:15:37.617Z,31.50
2018-11-03T22:18:07.124Z,27.10
2018-11-03T22:20:36.590Z,31.77
2018-11-03T22:23:06.340Z,29.03
2018-11-03T22:25:35.807Z,29.77
2018-11-03T22:28:05.701Z,33.20
2018-11-03T22:30:35.493Z,31.03
2018-11-03T22:33:05.289Z,30.87
2018-11-03T22:35:34.909Z,31.27
2018-11-03T22:38:04.719Z,32.23
2018-11-03T22:40:34.414Z,31.53
2018-11-03T22:43:04.034Z,28.20
2018-11-03T22:45:33.770Z,28.17
2018-11-03T22:48:02.411Z,30.83
2018-11-03T22:50:31.000Z,27.00
2018-11-03T22:52:59.642Z,31.03
2018-11-03T22:55:28.239Z,31.10
2018-11-03T22:57:56.806Z,29.43
2018-11-03T23:00:25.379Z,29.00
2018-11-03T23:02:53.988Z,29.93
2018-11-03T23:05:22.548Z,31.20
2018-11-03T23:07:51.194Z,32.03
2018-11-03T23:10:19.757Z,29.97
2018-11-03T23:12:48.373Z,30.53
2018-11-03T23:15:16.925Z,29.80
2018-11-03T23:17:45.508Z,31.00
2018-11-03T23:20:14.598Z,30.30
2018-11-03T23:22:43.182Z,30.07
2018-11-03T23:25:11.766Z,31.43
2018-11-03T23:27:40.404Z,29.97
2018-11-03T23:30:10.755Z,34.87
2018-11-03T23:32:39.416Z,30.03
2018-11-03T23:35:09.808Z,30.47
2018-11-03T23:37:38.401Z,29.33
2018-11-03T23:40:07.676Z,32.37
2018-11-03T23:42:36.265Z,28.67
2018-11-03T23:45:05.558Z,33.40
2018-11-03T23:47:34.156Z,30.13
2018-11-03T23:50:02.768Z,31.83
2018-11-03T23:52:33.691Z,27.23
2018-11-03T23:55:03.672Z,29.77
2018-11-03T23:57:32.255Z,33.03
